Time;durP1;ratioP1;P1;durP2;ratioP2;P2;SDS_P1;SDS_P2;PMS_P1;PMS_P2;Temp;Humidity;BMP_temperature;BMP_pressure;BME280_temperature;BME280_humidity;BME280_pressure;Samples;Min_cycle;Max_cycle;Signal;HPM_P1;HPM_P2
2023/10/19 00:01:55;;;;;;;20.35;17.05;;;11.80;99.90;;;;;;6271813;22;20008;-82
2023/10/19 00:04:22;;;;;;;18.60;16.15;;;11.90;99.90;;;;;;6272011;22;20011;-83
2023/10/19 00:06:48;;;;;;;17.48;15.60;;;11.90;99.90;;;;;;6272125;22;20067;-83
2023/10/19 00:09:15;;;;;;;20.20;17.70;;;11.90;99.90;;;;;;6272608;22;20335;-83
2023/10/19 00:11:41;;;;;;;18.92;17.00;;;11.90;99.90;;;;;;6273220;22;20019;-83
2023/10/19 00:14:15;;;;;;;19.50;17.35;;;12.00;99.90;;;;;;6275890;22;20026;-83
2023/10/19 00:16:49;;;;;;;18.92;17.00;;;12.00;99.90;;;;;;6275419;22;20002;-82
2023/10/19 00:19:19;;;;;;;20.38;18.10;;;12.00;99.90;;;;;;6275660;22;20008;-83
2023/10/19 00:21:54;;;;;;;23.80;19.17;;;12.10;99.90;;;;;;6275747;22;20074;-83
2023/10/19 00:24:22;;;;;;;22.52;18.80;;;12.10;99.90;;;;;;6275569;22;19995;-82
2023/10/19 00:26:54;;;;;;;19.63;17.05;;;12.10;99.90;;;;;;6274839;22;20048;-82
2023/10/19 00:29:33;;;;;;;20.42;16.73;;;12.20;99.90;;;;;;6275410;22;20456;-82
2023/10/19 00:31:59;;;;;;;24.00;18.08;;;12.20;99.90;;;;;;6275845;22;19999;-83
2023/10/19 00:34:28;;;;;;;20.80;18.65;;;12.20;99.90;;;;;;6247963;22;20004;-83
2023/10/19 00:36:56;;;;;;;23.52;20.00;;;12.20;99.90;;;;;;6275421;22;20003;-83
2023/10/19 00:39:23;;;;;;;22.98;19.08;;;12.30;99.90;;;;;;6274698;22;20062;-83
2023/10/19 00:41:49;;;;;;;17.63;15.82;;;12.20;99.90;;;;;;6247918;22;20341;-84
2023/10/19 00:44:23;;;;;;;22.67;18.95;;;12.20;99.90;;;;;;6275682;22;19996;-83
2023/10/19 00:47:03;;;;;;;23.75;19.48;;;12.30;99.90;;;;;;6275282;22;20333;-84
2023/10/19 00:49:30;;;;;;;29.83;22.75;;;12.30;99.90;;;;;;6275346;22;20000;-83
2023/10/19 00:52:02;;;;;;;27.50;20.80;;;12.30;99.90;;;;;;6275716;22;20325;-83
2023/10/19 00:54:39;;;;;;;36.08;24.83;;;12.30;99.90;;;;;;6274773;22;20010;-82
2023/10/19 00:57:11;;;;;;;27.38;22.35;;;12.30;99.90;;;;;;6275355;22;20000;-83
2023/10/19 00:59:43;;;;;;;23.23;19.60;;;12.30;99.90;;;;;;6275288;22;20082;-82
2023/10/19 01:02:19;;;;;;;25.02;22.35;;;12.30;99.90;;;;;;6275737;22;20580;-83
2023/10/19 01:04:50;;;;;;;31.13;24.33;;;12.30;99.90;;;;;;6275110;22;20004;-82
2023/10/19 01:07:22;;;;;;;23.25;20.70;;;12.40;99.90;;;;;;6275706;22;20417;-83
2023/10/19 01:09:53;;;;;;;27.95;21.45;;;12.40;99.90;;;;;;6274758;22;20052;-83
2023/10/19 01:12:25;;;;;;;35.22;24.70;;;12.40;99.90;;;;;;6275399;22;20420;-83
2023/10/19 01:17:53;;;;;;;28.00;22.08;;;12.50;99.90;;;;;;6285335;22;20223;-83
2023/10/19 01:29:00;;;;;;;25.27;20.38;;;12.50;99.90;;;;;;6284142;22;20011;-83
2023/10/19 01:31:38;;;;;;;23.23;18.77;;;12.50;99.90;;;;;;6273318;22;20024;-83
2023/10/19 01:34:06;;;;;;;30.25;24.58;;;12.60;99.90;;;;;;6273495;22;20049;-84
2023/10/19 01:36:41;;;;;;;32.30;23.02;;;12.60;99.90;;;;;;6273276;22;20000;-83
2023/10/19 01:39:11;;;;;;;31.58;24.30;;;12.60;99.90;;;;;;6272912;22;20153;-82
2023/10/19 01:41:37;;;;;;;27.63;20.77;;;12.60;99.90;;;;;;6273232;22;20429;-83
2023/10/19 01:44:06;;;;;;;29.05;22.75;;;12.60;99.90;;;;;;6273593;22;20003;-83
2023/10/19 01:46:34;;;;;;;35.58;24.35;;;12.70;99.90;;;;;;6273370;22;20073;-83
2023/10/19 01:49:03;;;;;;;35.38;25.48;;;12.70;99.90;;;;;;6273336;22;20008;-83
2023/10/19 01:51:38;;;;;;;25.30;20.48;;;12.70;99.90;;;;;;6273409;22;20321;-84
2023/10/19 01:54:06;;;;;;;33.85;23.38;;;12.80;99.90;;;;;;6272870;22;20056;-83
2023/10/19 01:56:35;;;;;;;27.90;21.88;;;12.80;99.90;;;;;;6273115;22;19996;-84
2023/10/19 01:59:01;;;;;;;41.13;28.15;;;12.80;99.90;;;;;;6273756;22;20054;-85
2023/10/19 02:03:54;;;;;;;25.25;19.67;;;12.90;99.90;;;;;;6273644;22;20046;-84
2023/10/19 02:06:20;;;;;;;21.83;18.90;;;12.90;99.90;;;;;;6272704;22;19999;-83
2023/10/19 02:09:00;;;;;;;25.33;20.35;;;12.90;99.90;;;;;;6273109;22;20014;-83
2023/10/19 02:11:27;;;;;;;21.92;17.15;;;13.00;99.90;;;;;;6273135;22;19996;-83
2023/10/19 02:13:55;;;;;;;22.98;19.75;;;13.00;99.90;;;;;;6273931;22;20715;-83
2023/10/19 02:16:22;;;;;;;23.00;19.05;;;13.10;99.90;;;;;;6274629;22;20002;-83
2023/10/19 02:18:49;;;;;;;18.23;15.38;;;13.10;99.90;;;;;;6273314;22;20003;-84
2023/10/19 02:21:19;;;;;;;31.88;19.65;;;13.20;99.90;;;;;;6272324;22;20231;-82
2023/10/19 02:23:44;;;;;;;20.77;16.75;;;13.20;99.90;;;;;;6245113;22;20011;-83
2023/10/19 02:26:13;;;;;;;20.90;16.60;;;13.20;99.90;;;;;;6272878;22;20382;-83
2023/10/19 02:28:39;;;;;;;24.13;18.55;;;13.20;99.90;;;;;;6272638;22;20003;-83
2023/10/19 02:31:15;;;;;;;20.73;15.95;;;13.30;99.90;;;;;;6272982;22;20048;-83
2023/10/19 02:33:50;;;;;;;21.25;15.30;;;13.30;99.90;;;;;;6272210;22;20425;-84
2023/10/19 02:36:16;;;;;;;17.33;14.23;;;13.40;99.90;;;;;;6271664;22;19999;-84
2023/10/19 02:38:44;;;;;;;16.42;13.43;;;13.40;99.90;;;;;;6272019;22;20389;-84
2023/10/19 02:41:09;;;;;;;17.98;13.73;;;13.50;99.90;;;;;;6272908;22;20011;-84
2023/10/19 02:43:40;;;;;;;16.60;14.27;;;13.50;99.90;;;;;;6272394;22;20008;-84
2023/10/19 02:46:06;;;;;;;15.80;14.10;;;13.60;99.90;;;;;;6273132;22;19999;-84
2023/10/19 02:48:32;;;;;;;21.23;15.23;;;13.60;99.90;;;;;;6272309;22;20020;-84
2023/10/19 02:51:05;;;;;;;17.85;14.65;;;13.60;99.90;;;;;;6272263;22;20498;-84
2023/10/19 02:53:31;;;;;;;17.17;11.98;;;13.70;99.90;;;;;;6245443;22;19999;-84
2023/10/19 02:56:01;;;;;;;14.10;12.60;;;13.70;99.90;;;;;;6272853;22;20008;-84
2023/10/19 02:58:28;;;;;;;15.48;12.35;;;13.70;99.90;;;;;;6245459;22;19999;-84
2023/10/19 03:00:54;;;;;;;14.05;12.65;;;13.80;99.90;;;;;;6271357;22;20098;-84
2023/10/19 03:03:20;;;;;;;14.15;10.00;;;13.80;99.90;;;;;;6270566;22;20000;-84
2023/10/19 03:05:46;;;;;;;11.85;10.65;;;13.80;99.90;;;;;;6270686;22;20035;-83
2023/10/19 03:08:15;;;;;;;13.93;11.02;;;13.90;99.90;;;;;;6272028;22;20003;-84
2023/10/19 03:10:43;;;;;;;12.32;10.60;;;13.90;99.90;;;;;;6270475;22;20090;-84
2023/10/19 03:13:09;;;;;;;13.50;12.05;;;13.90;99.90;;;;;;6272573;22;19995;-84
2023/10/19 03:15:35;;;;;;;15.40;11.00;;;14.00;99.90;;;;;;6272345;22;20133;-84
2023/10/19 03:18:02;;;;;;;14.00;11.00;;;14.00;99.90;;;;;;6272359;22;20003;-84
2023/10/19 03:20:29;;;;;;;11.35;10.18;;;14.00;99.90;;;;;;6271807;22;20306;-84
2023/10/19 03:22:59;;;;;;;14.15;11.05;;;14.00;99.90;;;;;;6272451;22;19996;-84
2023/10/19 03:28:11;;;;;;;11.40;10.20;;;14.10;99.90;;;;;;6210046;22;20042;-84
2023/10/19 03:30:40;;;;;;;11.07;8.95;;;14.00;99.90;;;;;;6272307;22;20004;-84
2023/10/19 03:33:08;;;;;;;10.80;8.02;;;14.10;99.90;;;;;;6272532;22;20000;-83
2023/10/19 03:35:37;;;;;;;10.05;7.82;;;14.10;99.90;;;;;;6271428;22;20417;-84
2023/10/19 03:38:07;;;;;;;9.77;6.60;;;14.10;99.90;;;;;;6274791;22;20026;-84
2023/10/19 03:40:34;;;;;;;10.13;6.78;;;14.20;99.90;;;;;;6274035;22;19999;-83
2023/10/19 03:43:05;;;;;;;9.02;4.78;;;14.30;99.90;;;;;;6275692;22;20353;-83
2023/10/19 03:45:33;;;;;;;6.78;4.95;;;14.30;99.90;;;;;;6273460;22;20027;-84
2023/10/19 03:48:06;;;;;;;8.57;5.93;;;14.30;99.90;;;;;;6272673;22;20083;-84
2023/10/19 03:50:33;;;;;;;7.65;4.18;;;14.30;99.90;;;;;;6271925;22;20000;-84
2023/10/19 03:52:58;;;;;;;7.57;4.60;;;14.40;99.90;;;;;;6272576;22;20418;-83
2023/10/19 03:55:24;;;;;;;7.50;4.75;;;14.40;99.90;;;;;;6271788;22;20011;-84
2023/10/19 03:57:54;;;;;;;6.28;4.13;;;14.40;99.90;;;;;;6272217;22;20042;-85
2023/10/19 04:00:24;;;;;;;11.57;3.83;;;14.50;99.90;;;;;;6272220;22;20003;-84
2023/10/19 04:02:55;;;;;;;6.93;4.38;;;14.50;99.90;;;;;;6271731;22;20000;-84
2023/10/19 04:05:22;;;;;;;10.55;4.38;;;14.50;99.90;;;;;;6271833;22;20483;-84
2023/10/19 04:07:54;;;;;;;6.68;3.58;;;14.50;99.90;;;;;;6271918;22;19999;-84
2023/10/19 04:10:29;;;;;;;4.85;4.22;;;14.50;99.90;;;;;;6272072;22;20012;-84
2023/10/19 04:12:55;;;;;;;6.75;4.43;;;14.50;99.90;;;;;;6244858;22;20085;-84
2023/10/19 04:15:21;;;;;;;11.82;4.80;;;14.50;99.90;;;;;;6271960;22;19996;-84
2023/10/19 04:17:48;;;;;;;5.28;4.45;;;14.50;99.90;;;;;;6271222;22;19999;-84
2023/10/19 04:22:47;;;;;;;9.73;6.10;;;14.50;99.90;;;;;;6271494;22;20052;-84
2023/10/19 04:25:13;;;;;;;6.95;5.90;;;14.50;99.90;;;;;;6272347;22;20083;-84
2023/10/19 04:27:41;;;;;;;12.43;6.78;;;14.50;99.90;;;;;;6244321;22;20012;-83
2023/10/19 04:30:15;;;;;;;9.15;7.43;;;14.50;99.90;;;;;;6244916;22;20008;-83
2023/10/19 04:32:41;;;;;;;10.07;7.90;;;14.50;99.90;;;;;;6240397;22;20026;-83
2023/10/19 04:35:09;;;;;;;9.73;6.55;;;14.50;99.90;;;;;;6270507;22;20062;-83
2023/10/19 04:37:35;;;;;;;11.07;7.53;;;14.50;99.90;;;;;;6271032;22;19999;-84
2023/10/19 04:40:00;;;;;;;12.65;8.48;;;14.40;99.90;;;;;;6274640;22;20091;-84
2023/10/19 04:42:27;;;;;;;14.35;8.45;;;14.50;99.90;;;;;;6245748;22;20004;-83
2023/10/19 04:44:56;;;;;;;13.25;8.00;;;14.50;99.90;;;;;;6272252;22;20103;-83
2023/10/19 04:47:22;;;;;;;9.18;7.50;;;14.40;99.90;;;;;;6271466;22;20148;-84
2023/10/19 04:49:47;;;;;;;9.10;7.65;;;14.40;99.90;;;;;;6244680;22;20425;-83
2023/10/19 04:52:13;;;;;;;15.43;9.05;;;14.40;99.90;;;;;;6271934;22;20063;-84
2023/10/19 04:54:38;;;;;;;9.95;7.32;;;14.40;99.90;;;;;;6244592;22;20000;-83
2023/10/19 04:57:04;;;;;;;10.30;7.57;;;14.40;99.90;;;;;;6245011;22;20000;-83
2023/10/19 04:59:33;;;;;;;11.82;7.20;;;14.40;99.90;;;;;;6246303;22;20053;-84
2023/10/19 05:02:01;;;;;;;12.57;7.95;;;14.30;99.90;;;;;;6246608;22;20031;-83
2023/10/19 05:04:27;;;;;;;10.82;7.47;;;14.30;99.90;;;;;;6246266;22;20004;-83
2023/10/19 05:06:53;;;;;;;12.25;7.60;;;14.20;99.90;;;;;;6273930;22;20080;-84
2023/10/19 05:09:19;;;;;;;14.38;7.88;;;14.20;99.90;;;;;;6274046;22;20035;-83
2023/10/19 05:11:45;;;;;;;8.48;6.65;;;14.10;99.90;;;;;;6246179;22;20012;-83
2023/10/19 05:14:13;;;;;;;11.98;5.93;;;14.00;99.90;;;;;;6273402;22;20000;-83
2023/10/19 05:16:42;;;;;;;6.45;5.70;;;13.90;99.90;;;;;;6269717;22;20071;-83
2023/10/19 05:19:08;;;;;;;9.32;5.97;;;13.90;99.90;;;;;;6272508;22;20009;-84
2023/10/19 05:21:34;;;;;;;9.13;6.70;;;13.80;99.90;;;;;;6245220;22;20489;-83
2023/10/19 05:24:00;;;;;;;8.07;5.70;;;13.80;99.90;;;;;;6273711;22;20004;-84
2023/10/19 05:26:27;;;;;;;6.97;5.95;;;13.80;99.90;;;;;;6273363;22;19999;-84
2023/10/19 05:28:54;;;;;;;6.18;5.55;;;13.70;99.90;;;;;;6273540;22;20012;-83
2023/10/19 05:31:20;;;;;;;10.15;6.85;;;13.70;99.90;;;;;;6273322;22;19995;-83
2023/10/19 05:33:48;;;;;;;6.53;5.40;;;13.70;99.90;;;;;;6272854;22;20000;-84
2023/10/19 05:36:14;;;;;;;9.68;5.60;;;13.80;99.90;;;;;;6273797;22;19995;-84
2023/10/19 05:38:40;;;;;;;7.68;5.63;;;13.80;99.90;;;;;;6272748;22;20020;-84
2023/10/19 05:41:07;;;;;;;8.60;5.93;;;13.90;99.90;;;;;;6273727;22;20052;-83
2023/10/19 05:43:34;;;;;;;6.00;5.40;;;13.90;99.90;;;;;;6273502;22;20008;-83
2023/10/19 05:46:00;;;;;;;10.93;5.50;;;13.90;99.90;;;;;;6246067;22;20341;-84
2023/10/19 05:48:25;;;;;;;8.60;5.40;;;14.00;99.90;;;;;;6272864;22;20004;-83
2023/10/19 05:50:51;;;;;;;6.70;5.55;;;14.00;99.90;;;;;;6246369;22;20417;-83
2023/10/19 05:53:18;;;;;;;11.98;5.43;;;14.00;99.90;;;;;;6273410;22;20022;-83
2023/10/19 05:55:44;;;;;;;7.60;5.10;;;14.10;99.90;;;;;;6273057;22;20011;-83
2023/10/19 05:58:10;;;;;;;7.10;5.00;;;14.20;99.90;;;;;;6273277;22;20429;-84
2023/10/19 06:00:35;;;;;;;8.15;5.60;;;14.20;99.90;;;;;;6245546;22;20000;-84
2023/10/19 06:03:01;;;;;;;8.55;5.38;;;14.20;99.90;;;;;;6273199;22;20007;-84
2023/10/19 06:05:30;;;;;;;4.80;4.38;;;14.30;99.90;;;;;;6246145;22;20003;-84
2023/10/19 06:07:55;;;;;;;8.57;4.63;;;14.30;99.90;;;;;;6246139;22;20082;-83
2023/10/19 06:10:22;;;;;;;7.32;4.60;;;14.40;99.90;;;;;;6273007;22;20042;-84
2023/10/19 06:12:52;;;;;;;6.30;4.57;;;14.40;99.90;;;;;;6273018;22;20050;-83
2023/10/19 06:15:23;;;;;;;5.55;4.03;;;14.50;99.90;;;;;;6273704;22;20007;-86
2023/10/19 06:17:49;;;;;;;7.40;3.97;;;14.50;99.90;;;;;;6273125;22;19999;-84
2023/10/19 06:20:24;;;;;;;6.32;5.30;;;14.50;99.90;;;;;;6273556;22;20031;-85
2023/10/19 06:23:04;;;;;;;6.13;4.28;;;14.60;99.90;;;;;;6273215;22;20006;-84
2023/10/19 06:25:30;;;;;;;8.13;4.43;;;14.60;99.90;;;;;;6272945;22;20318;-83
2023/10/19 06:27:57;;;;;;;8.48;4.53;;;14.60;99.90;;;;;;6272723;22;20000;-84
2023/10/19 06:30:23;;;;;;;7.72;4.32;;;14.70;99.90;;;;;;6273129;22;20016;-83
2023/10/19 06:32:51;;;;;;;8.10;4.35;;;14.70;99.90;;;;;;6246103;22;20008;-84
2023/10/19 06:35:17;;;;;;;5.40;4.85;;;14.70;99.90;;;;;;6273281;22;20334;-84
2023/10/19 06:37:43;;;;;;;6.72;4.18;;;14.70;99.90;;;;;;6272650;22;20435;-86
2023/10/19 06:40:14;;;;;;;8.60;3.78;;;14.80;99.90;;;;;;6246035;22;20008;-85
2023/10/19 06:42:45;;;;;;;9.77;4.50;;;14.80;99.90;;;;;;6272136;22;20049;-84
2023/10/19 06:45:13;;;;;;;8.80;4.35;;;14.80;99.90;;;;;;6245946;22;20000;-84
2023/10/19 06:47:44;;;;;;;10.00;4.28;;;14.80;99.90;;;;;;6272649;22;20322;-84
2023/10/19 06:50:12;;;;;;;6.93;4.50;;;14.80;99.90;;;;;;6245938;22;20008;-84
2023/10/19 06:52:38;;;;;;;7.05;3.88;;;14.80;99.90;;;;;;6272679;22;20022;-85
2023/10/19 06:55:07;;;;;;;6.75;4.05;;;14.90;99.90;;;;;;6245615;22;20438;-84
2023/10/19 06:57:33;;;;;;;6.03;3.70;;;14.90;99.90;;;;;;6272092;22;19999;-85
2023/10/19 06:59:59;;;;;;;8.95;4.00;;;14.90;99.90;;;;;;6272957;22;20008;-85
2023/10/19 07:02:26;;;;;;;6.60;3.03;;;14.90;99.90;;;;;;6273076;22;19999;-84
2023/10/19 07:04:52;;;;;;;4.63;3.08;;;15.00;99.90;;;;;;6247749;22;20010;-85
2023/10/19 07:07:18;;;;;;;5.78;2.95;;;15.00;99.90;;;;;;6274015;22;20079;-84
2023/10/19 07:09:43;;;;;;;10.25;3.28;;;15.00;99.90;;;;;;6244926;22;20018;-83
2023/10/19 07:12:09;;;;;;;9.65;3.28;;;15.10;99.90;;;;;;6245353;22;19996;-83
2023/10/19 07:14:34;;;;;;;5.65;3.00;;;15.10;99.90;;;;;;6272520;22;20007;-76
2023/10/19 07:17:00;;;;;;;9.38;3.03;;;15.10;99.90;;;;;;6271352;22;20122;-75
2023/10/19 07:19:25;;;;;;;8.27;3.47;;;15.20;99.90;;;;;;6244634;22;20004;-76
2023/10/19 07:21:57;;;;;;;7.35;2.72;;;15.20;99.90;;;;;;6244872;22;20004;-75
2023/10/19 07:24:23;;;;;;;5.68;2.88;;;15.20;99.90;;;;;;6244949;22;20938;-76
2023/10/19 07:26:53;;;;;;;8.40;2.78;;;15.20;99.90;;;;;;6244097;22;20007;-77
2023/10/19 07:29:20;;;;;;;5.85;2.70;;;15.30;99.90;;;;;;6271820;22;20341;-76
2023/10/19 07:31:45;;;;;;;8.27;3.08;;;15.30;99.90;;;;;;6244412;22;20007;-80
2023/10/19 07:34:15;;;;;;;5.70;2.35;;;15.30;99.90;;;;;;6271846;22;19996;-74
2023/10/19 07:36:42;;;;;;;8.80;2.67;;;15.30;99.90;;;;;;6271878;22;20018;-74
2023/10/19 07:39:13;;;;;;;5.03;2.22;;;15.30;99.90;;;;;;6271981;22;20463;-75
2023/10/19 07:41:40;;;;;;;5.32;2.05;;;15.30;99.90;;;;;;6271356;22;20576;-75
2023/10/19 07:44:05;;;;;;;5.90;1.67;;;15.40;99.90;;;;;;6244513;22;20003;-76
2023/10/19 07:46:31;;;;;;;6.07;1.80;;;15.40;99.90;;;;;;6244812;22;20058;-75
2023/10/19 07:48:59;;;;;;;5.72;2.17;;;15.30;99.90;;;;;;6271684;22;20334;-75
2023/10/19 07:51:25;;;;;;;10.98;2.22;;;15.40;99.90;;;;;;6244690;22;20489;-76
2023/10/19 07:53:51;;;;;;;5.88;2.13;;;15.40;99.90;;;;;;6243585;22;20042;-76
2023/10/19 07:56:17;;;;;;;6.65;2.00;;;15.40;99.90;;;;;;6244674;22;20064;-77
2023/10/19 07:58:43;;;;;;;9.50;2.05;;;15.50;99.90;;;;;;6271786;22;20078;-77
2023/10/19 08:01:08;;;;;;;6.93;1.73;;;15.50;99.90;;;;;;6272439;22;20004;-76
2023/10/19 08:03:35;;;;;;;10.30;1.88;;;15.50;99.90;;;;;;6271988;22;20070;-76
2023/10/19 08:06:00;;;;;;;5.80;1.83;;;15.60;99.90;;;;;;6272166;22;20008;-77
2023/10/19 08:08:33;;;;;;;6.90;2.17;;;15.60;99.90;;;;;;6244823;22;20075;-76
2023/10/19 08:10:59;;;;;;;6.50;2.00;;;15.60;99.90;;;;;;6271897;22;20023;-77
2023/10/19 08:13:26;;;;;;;10.23;2.15;;;15.70;99.90;;;;;;6271958;22;19995;-77
2023/10/19 08:15:51;;;;;;;3.85;1.70;;;15.70;99.90;;;;;;6272008;22;20004;-77
2023/10/19 08:18:17;;;;;;;9.02;1.80;;;15.70;99.90;;;;;;6272176;22;20011;-76
2023/10/19 08:20:45;;;;;;;6.15;2.15;;;15.80;99.90;;;;;;6271562;22;20342;-76
2023/10/19 08:23:13;;;;;;;3.75;1.60;;;15.80;99.90;;;;;;6245114;22;20372;-76
2023/10/19 08:25:39;;;;;;;7.90;2.03;;;15.80;99.90;;;;;;6244013;22;20008;-76
2023/10/19 08:28:06;;;;;;;5.85;2.10;;;15.90;99.90;;;;;;6272082;22;19996;-76
2023/10/19 08:30:34;;;;;;;7.05;1.85;;;15.90;99.90;;;;;;6272224;22;20004;-76
2023/10/19 08:32:59;;;;;;;11.32;3.25;;;15.90;99.90;;;;;;6273097;22;20000;-77
2023/10/19 08:35:26;;;;;;;11.52;2.72;;;16.00;99.90;;;;;;6274074;22;20061;-77
2023/10/19 08:37:57;;;;;;;6.28;1.65;;;16.00;99.90;;;;;;6246169;22;20014;-76
2023/10/19 08:40:26;;;;;;;6.10;2.00;;;16.00;99.90;;;;;;6246897;22;20011;-76
2023/10/19 08:42:53;;;;;;;6.93;2.42;;;16.10;99.90;;;;;;6246688;22;20674;-77
2023/10/19 08:45:21;;;;;;;9.70;2.67;;;16.10;99.90;;;;;;6274212;22;19996;-77
2023/10/19 08:47:57;;;;;;;6.40;2.20;;;16.10;99.90;;;;;;6273878;22;20518;-76
2023/10/19 08:50:34;;;;;;;3.28;2.25;;;16.20;99.90;;;;;;6273609;22;20011;-77
2023/10/19 08:53:08;;;;;;;10.15;2.83;;;16.20;99.90;;;;;;6273354;22;20003;-76
2023/10/19 08:55:37;;;;;;;8.98;2.28;;;16.30;99.90;;;;;;6273767;22;20006;-76
2023/10/19 08:58:06;;;;;;;6.72;2.03;;;16.40;99.90;;;;;;6246552;22;20145;-76
2023/10/19 09:00:53;;;;;;;6.70;2.58;;;16.40;99.90;;;;;;6247128;22;20027;-77
2023/10/19 09:03:19;;;;;;;10.27;3.03;;;16.50;99.90;;;;;;6273898;22;20010;-76
2023/10/19 09:05:46;;;;;;;9.40;2.45;;;16.50;99.90;;;;;;6273655;22;20000;-76
2023/10/19 09:08:19;;;;;;;9.60;2.88;;;16.60;99.90;;;;;;6273127;22;20003;-76
2023/10/19 09:10:46;;;;;;;11.60;3.15;;;16.70;99.90;;;;;;6273621;22;20007;-76
2023/10/19 09:13:12;;;;;;;9.63;2.30;;;16.70;99.90;;;;;;6274020;22;19996;-76
2023/10/19 09:15:39;;;;;;;8.85;3.03;;;16.70;99.90;;;;;;6273852;22;20065;-76
2023/10/19 09:18:15;;;;;;;7.40;2.80;;;16.70;99.90;;;;;;6246200;22;20000;-76
2023/10/19 09:20:52;;;;;;;8.02;2.60;;;16.80;99.90;;;;;;6273760;22;20330;-76
2023/10/19 09:23:28;;;;;;;9.35;2.85;;;16.80;99.90;;;;;;6244587;22;20077;-76
2023/10/19 09:25:57;;;;;;;11.13;3.00;;;16.80;99.90;;;;;;6273145;22;20013;-76
2023/10/19 09:28:24;;;;;;;8.18;3.22;;;16.80;99.90;;;;;;6272808;22;20019;-76
2023/10/19 09:30:50;;;;;;;9.20;2.80;;;16.80;99.90;;;;;;6273562;22;20099;-76
2023/10/19 09:33:17;;;;;;;4.85;2.58;;;16.90;99.90;;;;;;6273363;22;19999;-76
2023/10/19 09:35:54;;;;;;;8.23;3.67;;;16.90;99.90;;;;;;6273366;22;20000;-76
2023/10/19 09:38:24;;;;;;;12.65;2.45;;;17.00;99.90;;;;;;6241198;23;20017;-76
2023/10/19 09:40:55;;;;;;;8.90;3.63;;;17.10;99.90;;;;;;6242664;23;20000;-76
2023/10/19 09:43:45;;;;;;;7.82;2.78;;;17.20;99.90;;;;;;6242564;23;20004;-76
2023/10/19 09:46:21;;;;;;;7.63;2.85;;;17.30;99.90;;;;;;6242776;23;20004;-76
2023/10/19 09:48:48;;;;;;;9.73;3.00;;;17.40;99.90;;;;;;6241375;23;20000;-76
2023/10/19 09:51:16;;;;;;;6.85;2.85;;;17.50;99.90;;;;;;6242050;23;19997;-76
2023/10/19 09:53:44;;;;;;;9.88;2.92;;;17.50;99.90;;;;;;6240999;23;20004;-76
2023/10/19 09:56:21;;;;;;;7.88;3.13;;;17.60;99.90;;;;;;6242566;23;20453;-76
2023/10/19 09:58:50;;;;;;;6.53;3.47;;;17.70;99.90;;;;;;6242871;23;20379;-76
2023/10/19 10:01:16;;;;;;;8.25;4.13;;;17.80;99.90;;;;;;6242400;23;20004;-76
2023/10/19 10:03:44;;;;;;;16.90;4.82;;;17.80;99.90;;;;;;6240687;23;20057;-76
2023/10/19 10:06:14;;;;;;;9.77;4.00;;;17.90;99.90;;;;;;6239865;23;20015;-76
2023/10/19 10:08:44;;;;;;;8.60;4.55;;;18.00;99.90;;;;;;6242356;23;20042;-75
2023/10/19 10:11:28;;;;;;;9.13;4.13;;;17.90;99.90;;;;;;6242124;23;20031;-76
2023/10/19 10:13:56;;;;;;;11.65;4.35;;;17.90;99.90;;;;;;6239003;23;20022;-76
2023/10/19 10:16:26;;;;;;;8.90;4.30;;;17.90;99.90;;;;;;6240419;23;20038;-76
2023/10/19 10:18:59;;;;;;;12.00;5.55;;;17.80;99.90;;;;;;6241356;22;20498;-75
2023/10/19 10:21:26;;;;;;;12.52;4.75;;;17.80;99.90;;;;;;6241376;23;20003;-76
2023/10/19 10:23:55;;;;;;;12.00;3.60;;;17.80;99.90;;;;;;6241884;23;20422;-76
2023/10/19 10:26:26;;;;;;;14.80;3.85;;;17.70;99.90;;;;;;6240610;23;20039;-76
2023/10/19 10:29:19;;;;;;;7.90;3.30;;;17.80;99.90;;;;;;6241636;23;20330;-75
2023/10/19 10:31:48;;;;;;;11.73;2.97;;;17.80;99.90;;;;;;6242278;23;20007;-76
2023/10/19 10:34:42;;;;;;;6.82;2.33;;;17.90;99.90;;;;;;6241302;23;19996;-76
2023/10/19 10:37:09;;;;;;;9.95;2.90;;;18.00;99.90;;;;;;6241447;23;20436;-76
2023/10/19 10:39:36;;;;;;;12.15;3.17;;;18.00;99.90;;;;;;6270095;22;20008;-75
2023/10/19 10:42:04;;;;;;;7.82;2.85;;;18.10;99.90;;;;;;6272269;22;20011;-75
2023/10/19 10:44:46;;;;;;;7.53;2.63;;;18.20;99.90;;;;;;6272553;22;20000;-75
2023/10/19 10:47:29;;;;;;;8.80;3.00;;;18.30;99.90;;;;;;6272663;22;20000;-75
2023/10/19 10:49:57;;;;;;;11.38;3.72;;;18.30;99.90;;;;;;6271966;22;20000;-76
2023/10/19 10:52:33;;;;;;;12.48;3.00;;;18.30;99.90;;;;;;6272018;22;20269;-76
2023/10/19 10:55:15;;;;;;;10.45;3.08;;;18.30;99.90;;;;;;6272688;22;20072;-75
2023/10/19 10:57:41;;;;;;;6.93;2.40;;;18.30;99.90;;;;;;6272225;22;20380;-75
2023/10/19 11:00:16;;;;;;;9.65;3.25;;;18.30;99.90;;;;;;6271658;22;20004;-75
2023/10/19 11:02:46;;;;;;;12.30;3.63;;;18.30;99.90;;;;;;6272726;22;20365;-75
2023/10/19 11:05:13;;;;;;;10.63;3.20;;;18.30;99.90;;;;;;6271497;22;20053;-74
2023/10/19 11:08:04;;;;;;;11.63;3.42;;;18.30;99.90;;;;;;6272550;22;20006;-75
2023/10/19 11:10:30;;;;;;;9.93;3.33;;;18.30;99.90;;;;;;6272131;22;20039;-75
2023/10/19 11:13:08;;;;;;;13.07;3.78;;;18.40;99.90;;;;;;6272268;22;19999;-75
2023/10/19 11:15:36;;;;;;;8.85;2.45;;;18.40;99.90;;;;;;6272817;22;20022;-75
2023/10/19 11:18:02;;;;;;;9.20;2.83;;;18.50;99.90;;;;;;6271663;22;20006;-75
2023/10/19 11:20:28;;;;;;;9.70;3.20;;;18.70;99.90;;;;;;6272368;22;20000;-75
2023/10/19 11:22:56;;;;;;;11.55;3.20;;;18.70;99.90;;;;;;6272378;22;20004;-75
2023/10/19 11:25:31;;;;;;;11.15;3.08;;;18.90;99.90;;;;;;6271931;22;20030;-75
2023/10/19 11:27:59;;;;;;;8.05;3.30;;;18.90;99.90;;;;;;6272210;22;20080;-75
2023/10/19 11:30:29;;;;;;;12.25;3.00;;;19.00;99.90;;;;;;6271684;22;20004;-75
2023/10/19 11:33:01;;;;;;;9.57;2.65;;;18.90;99.90;;;;;;6271933;22;20023;-75
2023/10/19 11:35:30;;;;;;;8.85;2.42;;;18.90;99.90;;;;;;6271932;22;20421;-75
2023/10/19 11:37:58;;;;;;;9.82;3.38;;;18.80;99.90;;;;;;6272072;22;20031;-75
2023/10/19 11:40:25;;;;;;;14.10;3.35;;;18.80;99.90;;;;;;6271541;22;20425;-75
2023/10/19 11:42:51;;;;;;;10.32;2.58;;;18.80;99.90;;;;;;6245013;22;20390;-75
2023/10/19 11:45:17;;;;;;;8.60;2.83;;;18.90;99.90;;;;;;6271756;22;20031;-75
2023/10/19 11:47:46;;;;;;;5.15;2.17;;;19.00;99.90;;;;;;6271607;22;20310;-75
2023/10/19 11:50:14;;;;;;;11.35;3.13;;;19.10;99.90;;;;;;6272107;22;20037;-75
2023/10/19 11:52:40;;;;;;;7.78;2.22;;;19.20;99.90;;;;;;6271755;22;20002;-75
2023/10/19 11:55:06;;;;;;;6.82;2.80;;;19.20;99.90;;;;;;6271853;22;20004;-75
2023/10/19 11:57:32;;;;;;;8.45;2.03;;;19.30;99.90;;;;;;6271603;22;20004;-76
2023/10/19 11:59:59;;;;;;;8.32;2.25;;;19.30;99.90;;;;;;6271901;22;20008;-73
2023/10/19 12:02:26;;;;;;;10.15;2.83;;;19.40;99.90;;;;;;6270463;22;19999;-76
2023/10/19 12:04:52;;;;;;;12.73;2.53;;;19.40;99.90;;;;;;6244828;22;20445;-76
2023/10/19 12:07:18;;;;;;;11.15;2.60;;;19.50;99.90;;;;;;6271428;22;20000;-75
2023/10/19 12:09:44;;;;;;;10.13;1.88;;;19.50;99.90;;;;;;6271857;22;20547;-75
2023/10/19 12:12:10;;;;;;;11.65;2.20;;;19.40;99.90;;;;;;6244947;22;20087;-75
2023/10/19 12:14:36;;;;;;;6.63;2.15;;;19.20;99.90;;;;;;6271668;22;20036;-75
2023/10/19 12:17:02;;;;;;;11.38;2.13;;;19.20;99.90;;;;;;6271293;22;20420;-75
2023/10/19 12:19:29;;;;;;;7.60;2.25;;;19.20;99.90;;;;;;6271792;22;20372;-75
2023/10/19 12:21:55;;;;;;;8.10;1.92;;;19.20;99.90;;;;;;6271555;22;20009;-75
2023/10/19 12:24:21;;;;;;;10.88;1.75;;;19.20;99.90;;;;;;6271104;22;20333;-75
2023/10/19 12:26:47;;;;;;;10.18;2.38;;;19.10;99.90;;;;;;6271979;22;20011;-75
2023/10/19 12:29:14;;;;;;;7.82;2.15;;;19.10;99.90;;;;;;6271415;22;20015;-75
2023/10/19 12:31:40;;;;;;;9.65;2.30;;;19.20;99.90;;;;;;6268958;22;19999;-75
2023/10/19 12:34:11;;;;;;;9.30;1.88;;;19.10;99.90;;;;;;6242320;22;19999;-75
2023/10/19 12:36:37;;;;;;;8.77;1.98;;;19.10;99.90;;;;;;6269348;22;20422;-73
2023/10/19 12:39:06;;;;;;;10.02;2.15;;;19.10;99.90;;;;;;6269161;22;20012;-74
2023/10/19 12:41:32;;;;;;;9.32;2.13;;;19.00;99.90;;;;;;6270885;22;20376;-74
2023/10/19 12:44:00;;;;;;;6.75;1.77;;;19.10;99.90;;;;;;6271546;22;20030;-74
2023/10/19 12:46:29;;;;;;;8.75;1.58;;;19.00;99.90;;;;;;6270463;22;20041;-74
2023/10/19 12:48:56;;;;;;;8.60;1.67;;;19.10;99.90;;;;;;6271621;22;20435;-74
2023/10/19 12:51:24;;;;;;;7.93;1.45;;;19.10;99.90;;;;;;6270857;22;20748;-74
2023/10/19 12:53:53;;;;;;;6.05;1.08;;;19.10;99.90;;;;;;6271749;22;19996;-74
2023/10/19 12:56:28;;;;;;;10.40;1.55;;;19.00;99.90;;;;;;6244476;22;20004;-74
2023/10/19 12:58:54;;;;;;;10.30;1.70;;;19.00;99.90;;;;;;6244263;22;20030;-74
2023/10/19 13:01:21;;;;;;;7.63;1.83;;;18.90;99.90;;;;;;6271346;22;20437;-74
2023/10/19 13:03:51;;;;;;;10.07;1.88;;;18.90;99.90;;;;;;6271891;22;20015;-75
2023/10/19 13:06:17;;;;;;;8.05;1.65;;;18.80;99.90;;;;;;6244138;22;20036;-74
2023/10/19 13:08:43;;;;;;;6.10;1.17;;;18.80;99.90;;;;;;6270974;22;20091;-75